createdAt,value
2023-05-21T00:00:10.610Z,1.2000
2023-05-21T00:01:12.406Z,1.2000
2023-05-21T00:02:14.061Z,1.2000
2023-05-21T00:03:15.925Z,1.2000
2023-05-21T00:04:17.539Z,1.2000
2023-05-21T00:05:19.248Z,1.2000
2023-05-21T00:06:21.199Z,1.2000
2023-05-21T00:07:22.685Z,1.2000
2023-05-21T00:08:24.426Z,1.2000
2023-05-21T00:09:26.168Z,1.2000
2023-05-21T00:10:27.833Z,1.2000
2023-05-21T00:11:29.580Z,1.2000
2023-05-21T00:12:31.301Z,1.2000
2023-05-21T00:13:33.003Z,1.2000
2023-05-21T00:14:34.749Z,1.2000
2023-05-21T00:15:36.670Z,1.2000
2023-05-21T00:16:38.324Z,1.2000
2023-05-21T00:17:40.112Z,1.2000
2023-05-21T00:18:41.657Z,1.2000
2023-05-21T00:19:43.338Z,1.2000
2023-05-21T00:20:45.064Z,1.2000
2023-05-21T00:21:46.788Z,1.2000
2023-05-21T00:22:48.516Z,1.2000
2023-05-21T00:23:50.261Z,1.2000
2023-05-21T00:24:51.953Z,1.2000
2023-05-21T00:25:53.693Z,1.2000
2023-05-21T00:26:55.412Z,1.2000
2023-05-21T00:27:57.115Z,1.2000
2023-05-21T00:28:58.850Z,1.2000
2023-05-21T00:30:00.573Z,1.2000
2023-05-21T00:31:02.303Z,1.2154
2023-05-21T00:32:04.096Z,1.2000
2023-05-21T00:33:05.769Z,1.2000
2023-05-21T00:34:07.490Z,1.2000
2023-05-21T00:35:09.196Z,1.2000
2023-05-21T00:36:10.893Z,1.2000
2023-05-21T00:37:12.646Z,1.2000
2023-05-21T00:38:14.362Z,1.2000
2023-05-21T00:39:16.060Z,1.2000
2023-05-21T00:40:17.802Z,1.2000
2023-05-21T00:41:19.533Z,1.2000
2023-05-21T00:42:21.235Z,1.2000
2023-05-21T00:43:22.962Z,1.2000
2023-05-21T00:44:24.705Z,1.2000
2023-05-21T00:45:26.428Z,1.2000
2023-05-21T00:46:28.144Z,1.2154
2023-05-21T00:47:30.000Z,1.2000
2023-05-21T00:48:31.594Z,1.2000
2023-05-21T00:49:33.297Z,1.2000
2023-05-21T00:50:35.018Z,1.2000
2023-05-21T00:51:36.768Z,1.2000
2023-05-21T00:52:38.559Z,1.2000
2023-05-21T00:53:40.192Z,1.3846
2023-05-21T00:54:41.941Z,1.2923
2023-05-21T00:55:43.668Z,1.2154
2023-05-21T00:56:45.398Z,1.3846
2023-05-21T00:57:47.090Z,1.3231
2023-05-21T00:58:48.830Z,1.4000
2023-05-21T00:59:50.578Z,1.4000
2023-05-21T01:00:52.304Z,1.4000
2023-05-21T01:01:54.005Z,1.4000
2023-05-21T01:02:55.780Z,1.4000
2023-05-21T01:03:57.445Z,1.4000
2023-05-21T01:04:59.159Z,1.4000
2023-05-21T01:06:00.916Z,1.4000
2023-05-21T01:07:02.621Z,1.4000
2023-05-21T01:08:04.327Z,1.4000
2023-05-21T01:09:06.070Z,1.4000
2023-05-21T01:10:07.907Z,1.4000
2023-05-21T01:11:09.485Z,1.4000
2023-05-21T01:12:11.213Z,1.4000
2023-05-21T01:13:12.961Z,1.4000
2023-05-21T01:14:14.670Z,1.4000
2023-05-21T01:15:16.384Z,1.3538
2023-05-21T01:16:18.176Z,1.3231
2023-05-21T01:17:19.866Z,1.3846
2023-05-21T01:18:21.569Z,1.2615
2023-05-21T01:19:23.334Z,1.2154
2023-05-21T01:20:25.038Z,1.2769
2023-05-21T01:21:26.729Z,1.4000
2023-05-21T01:22:28.504Z,1.4000
2023-05-21T01:23:30.203Z,1.4000
2023-05-21T01:24:31.892Z,1.3385
2023-05-21T01:25:33.755Z,1.3846
2023-05-21T01:26:35.368Z,1.4000
2023-05-21T01:27:37.074Z,1.4000
2023-05-21T01:28:38.800Z,1.4000
2023-05-21T01:29:40.534Z,1.4000
2023-05-21T01:30:42.260Z,1.4000
2023-05-21T01:31:43.983Z,1.4000
2023-05-21T01:32:45.776Z,1.4000
2023-05-21T01:33:47.483Z,1.4000
2023-05-21T01:34:49.156Z,1.4000
2023-05-21T01:35:50.856Z,1.4000
2023-05-21T01:36:52.580Z,1.4000
2023-05-21T01:37:54.330Z,1.4000
2023-05-21T01:38:56.056Z,1.4000
2023-05-21T01:39:57.753Z,1.4000
2023-05-21T01:40:59.489Z,1.4000
2023-05-21T01:42:01.203Z,1.4000
2023-05-21T01:43:02.926Z,1.4000
2023-05-21T01:44:04.703Z,1.4000
2023-05-21T01:45:06.399Z,1.4000
2023-05-21T01:46:08.138Z,1.4000
2023-05-21T01:47:09.833Z,1.4000
2023-05-21T01:48:11.565Z,1.4000
2023-05-21T01:49:13.269Z,1.4000
2023-05-21T01:50:15.013Z,1.4000
2023-05-21T01:51:16.738Z,1.4000
2023-05-21T01:52:18.427Z,1.4000
2023-05-21T01:53:20.157Z,1.4000
2023-05-21T01:54:21.901Z,1.4000
2023-05-21T01:55:23.599Z,1.4000
2023-05-21T01:56:25.327Z,1.4000
2023-05-21T01:57:27.102Z,1.4000
2023-05-21T01:58:28.772Z,1.4000
2023-05-21T01:59:30.513Z,1.4000
2023-05-21T02:00:32.245Z,1.4000
2023-05-21T02:01:33.972Z,1.4000
2023-05-21T02:02:35.812Z,1.4000
2023-05-21T02:03:37.507Z,1.4000
2023-05-21T02:04:39.131Z,1.4000
2023-05-21T02:05:40.866Z,1.4000
2023-05-21T02:06:42.573Z,1.4000
2023-05-21T02:07:44.317Z,1.3692
2023-05-21T02:08:46.013Z,1.4000
2023-05-21T02:09:47.775Z,1.4000
2023-05-21T02:10:49.463Z,1.4000
2023-05-21T02:11:50.995Z,1.3000
2023-05-21T02:12:54.847Z,1.2833
2023-05-21T02:16:05.009Z,1.1000
2023-05-21T02:17:06.595Z,1.2000
2023-05-21T02:18:08.387Z,1.2000
2023-05-21T02:19:10.250Z,1.2000
2023-05-21T02:20:11.865Z,1.2000
2023-05-21T02:21:13.525Z,1.2000
2023-05-21T02:22:15.215Z,1.2000
2023-05-21T02:23:16.946Z,1.2000
2023-05-21T02:24:18.737Z,1.2000
2023-05-21T02:25:20.428Z,1.2000
2023-05-21T02:26:22.151Z,1.2000
2023-05-21T02:27:23.856Z,1.2000
2023-05-21T02:28:25.591Z,1.2000
2023-05-21T02:29:27.317Z,1.2000
2023-05-21T02:30:29.043Z,1.2000
2023-05-21T02:31:30.744Z,1.2000
2023-05-21T02:32:32.580Z,1.2000
2023-05-21T02:33:34.290Z,1.2000
2023-05-21T02:34:35.949Z,1.2000
2023-05-21T02:35:37.837Z,1.2000
2023-05-21T02:36:39.394Z,1.2000
2023-05-21T02:37:41.118Z,1.2000
2023-05-21T02:38:42.835Z,1.2000
2023-05-21T02:39:44.573Z,1.2000
2023-05-21T02:40:46.308Z,1.2000
2023-05-21T02:41:48.005Z,1.2000
2023-05-21T02:42:49.742Z,1.2000
2023-05-21T02:43:51.461Z,1.2000
2023-05-21T02:44:53.175Z,1.2000
2023-05-21T02:45:54.957Z,1.2000
2023-05-21T02:46:56.628Z,1.2000
2023-05-21T02:47:58.429Z,1.2000
2023-05-21T02:49:00.105Z,1.2000
2023-05-21T02:50:01.826Z,1.2000
2023-05-21T02:51:03.554Z,1.2000
2023-05-21T02:52:05.247Z,1.2000
2023-05-21T02:53:06.975Z,1.2000
2023-05-21T02:54:08.720Z,1.2000
2023-05-21T02:55:10.421Z,1.2000
2023-05-21T02:56:12.162Z,1.2000
2023-05-21T02:57:13.903Z,1.2000
2023-05-21T02:58:15.608Z,1.2000
2023-05-21T02:59:17.346Z,1.2000
2023-05-21T03:00:19.089Z,1.3231
2023-05-21T03:01:20.835Z,1.4000
2023-05-21T03:02:22.758Z,1.3231
2023-05-21T03:03:24.382Z,1.3692
2023-05-21T03:04:25.974Z,1.4000
2023-05-21T03:05:27.697Z,1.4000
2023-05-21T03:06:29.440Z,1.4000
2023-05-21T03:07:31.169Z,1.4000
2023-05-21T03:08:32.872Z,1.4000
2023-05-21T03:09:34.617Z,1.3692
2023-05-21T03:10:36.350Z,1.4000
2023-05-21T03:11:38.077Z,1.4000
2023-05-21T03:12:39.792Z,1.4000
2023-05-21T03:13:41.551Z,1.4000
2023-05-21T03:14:43.263Z,1.4000
2023-05-21T03:15:44.956Z,1.4000
2023-05-21T03:16:46.731Z,1.4000
2023-05-21T03:17:48.460Z,1.4000
2023-05-21T03:18:50.174Z,1.4000
2023-05-21T03:19:51.863Z,1.4000
2023-05-21T03:20:53.661Z,1.4000
2023-05-21T03:21:55.341Z,1.4000
2023-05-21T03:22:57.069Z,1.4000
2023-05-21T03:23:58.802Z,1.4000
2023-05-21T03:25:00.489Z,1.4000
2023-05-21T03:26:02.260Z,1.4000
2023-05-21T03:27:03.972Z,1.4000
2023-05-21T03:28:05.663Z,1.4000
2023-05-21T03:29:07.420Z,1.4000
2023-05-21T03:30:09.165Z,1.4000
2023-05-21T03:31:10.839Z,1.4000
2023-05-21T03:32:12.683Z,1.4000
2023-05-21T03:33:14.324Z,1.4000
2023-05-21T03:34:16.010Z,1.4000
2023-05-21T03:35:17.763Z,1.4000
2023-05-21T03:36:19.482Z,1.4000
2023-05-21T03:37:21.196Z,1.4000
2023-05-21T03:38:22.907Z,1.4308
2023-05-21T03:39:24.657Z,1.5385
2023-05-21T03:40:26.390Z,1.6000
2023-05-21T03:41:28.116Z,1.5538
2023-05-21T03:42:29.824Z,1.4000
2023-05-21T03:43:31.565Z,1.4000
2023-05-21T03:44:33.258Z,1.4308
2023-05-21T03:45:35.135Z,1.5538
2023-05-21T03:46:36.813Z,1.5385
2023-05-21T03:47:38.547Z,1.4154
2023-05-21T03:48:40.160Z,1.4154
2023-05-21T03:49:41.898Z,1.4769
2023-05-21T03:50:43.632Z,1.4923
2023-05-21T03:51:45.324Z,1.4000
2023-05-21T03:52:47.080Z,1.4000
2023-05-21T03:53:48.800Z,1.5538
2023-05-21T03:54:50.500Z,1.5231
2023-05-21T03:55:52.236Z,1.6000
2023-05-21T03:56:53.976Z,1.5538
2023-05-21T03:57:55.693Z,1.4000
2023-05-21T03:58:57.404Z,1.4000
2023-05-21T03:59:59.173Z,1.4000
2023-05-21T04:01:00.852Z,1.4000
2023-05-21T04:02:02.572Z,1.4000
2023-05-21T04:03:04.415Z,1.4000
2023-05-21T04:04:06.222Z,1.4000
2023-05-21T04:05:07.753Z,1.4000
2023-05-21T04:06:09.508Z,1.4000
2023-05-21T04:07:11.197Z,1.4000
2023-05-21T04:08:12.957Z,1.4000
2023-05-21T04:09:14.653Z,1.4000
2023-05-21T04:10:16.368Z,1.4000
2023-05-21T04:11:18.107Z,1.4000
2023-05-21T04:12:19.853Z,1.4000
2023-05-21T04:13:21.573Z,1.4000
2023-05-21T04:14:23.311Z,1.4000
2023-05-21T04:15:25.008Z,1.4000
2023-05-21T04:16:26.741Z,1.4000
2023-05-21T04:17:28.453Z,1.4000
2023-05-21T04:18:30.245Z,1.4000
2023-05-21T04:19:31.978Z,1.4000
2023-05-21T04:20:33.644Z,1.4000
2023-05-21T04:21:35.346Z,1.4000
2023-05-21T04:22:37.060Z,1.4000
2023-05-21T04:23:38.824Z,1.4000
2023-05-21T04:24:40.499Z,1.3846
2023-05-21T04:25:42.246Z,1.3846
2023-05-21T04:26:43.968Z,1.4000
2023-05-21T04:27:45.670Z,1.3692
2023-05-21T04:28:47.449Z,1.4000
2023-05-21T04:29:50.702Z,1.3846
2023-05-21T04:30:50.861Z,1.4000
2023-05-21T04:31:52.620Z,1.4000
2023-05-21T04:32:54.315Z,1.4000
2023-05-21T04:33:56.028Z,1.4000
2023-05-21T04:34:57.733Z,1.4000
2023-05-21T04:35:59.486Z,1.4000
2023-05-21T04:37:01.183Z,1.4000
2023-05-21T04:38:04.194Z,1.4000
2023-05-21T04:40:05.504Z,1.1333
2023-05-21T04:41:07.158Z,1.2000
2023-05-21T04:42:08.879Z,1.2000
2023-05-21T04:43:10.711Z,1.2000
2023-05-21T04:44:12.327Z,1.2000
2023-05-21T04:45:14.031Z,1.2154
2023-05-21T04:46:15.865Z,1.3077
2023-05-21T04:47:17.545Z,1.4000
2023-05-21T04:48:19.271Z,1.3692
2023-05-21T04:49:20.979Z,1.2769
2023-05-21T04:50:22.669Z,1.2000
2023-05-21T04:51:24.400Z,1.2000
2023-05-21T04:52:26.093Z,1.2000
2023-05-21T04:53:27.824Z,1.2000
2023-05-21T04:54:29.581Z,1.2000
2023-05-21T04:55:31.269Z,1.2000
2023-05-21T04:56:33.030Z,1.2000
2023-05-21T04:57:34.734Z,1.2000
2023-05-21T04:58:36.438Z,1.2000
2023-05-21T04:59:38.155Z,1.2000
2023-05-21T05:00:39.930Z,1.2000
2023-05-21T05:01:41.604Z,1.2000
2023-05-21T05:02:43.538Z,1.2000
2023-05-21T05:03:45.127Z,1.2000
2023-05-21T05:04:46.809Z,1.2000
2023-05-21T05:05:48.513Z,1.2000
2023-05-21T05:06:50.244Z,1.2000
2023-05-21T05:07:51.983Z,1.2000
2023-05-21T05:08:53.674Z,1.2000
2023-05-21T05:09:55.416Z,1.2000
2023-05-21T05:10:57.153Z,1.2000
2023-05-21T05:11:58.842Z,1.2000
2023-05-21T05:13:00.567Z,1.2000
2023-05-21T05:14:02.308Z,1.2000
2023-05-21T05:15:04.004Z,1.2000
2023-05-21T05:16:05.759Z,1.3231
2023-05-21T05:17:07.478Z,1.4000
2023-05-21T05:18:09.218Z,1.4000
2023-05-21T05:19:10.935Z,1.4000
2023-05-21T05:20:12.651Z,1.4000
2023-05-21T05:21:14.342Z,1.4000
2023-05-21T05:22:16.089Z,1.4000
2023-05-21T05:23:17.802Z,1.4000
2023-05-21T05:24:19.536Z,1.4000
2023-05-21T05:25:21.254Z,1.4000
2023-05-21T05:26:22.961Z,1.4000
2023-05-21T05:27:24.697Z,1.4000
2023-05-21T05:28:26.426Z,1.4000
2023-05-21T05:29:28.135Z,1.4000
2023-05-21T05:30:29.856Z,1.4000
2023-05-21T05:31:31.653Z,1.4000
2023-05-21T05:32:33.401Z,1.4000
2023-05-21T05:33:35.021Z,1.4000
2023-05-21T05:34:36.738Z,1.4000
2023-05-21T05:35:38.572Z,1.4000
2023-05-21T05:36:40.201Z,1.4000
2023-05-21T05:37:41.939Z,1.4000
2023-05-21T05:38:43.621Z,1.4000
2023-05-21T05:39:45.341Z,1.4000
2023-05-21T05:40:47.056Z,1.4000
2023-05-21T05:41:48.809Z,1.4000
2023-05-21T05:42:50.521Z,1.4000
2023-05-21T05:43:52.243Z,1.4000
2023-05-21T05:44:53.968Z,1.4000
2023-05-21T05:45:55.716Z,1.4000
2023-05-21T05:46:57.385Z,1.4000
2023-05-21T05:47:59.138Z,1.4000
2023-05-21T05:49:00.844Z,1.4000
2023-05-21T05:50:02.569Z,1.4000
2023-05-21T05:51:04.287Z,1.4000
2023-05-21T05:52:05.995Z,1.4000
2023-05-21T05:53:07.718Z,1.4000
2023-05-21T05:54:09.442Z,1.4000
2023-05-21T05:55:11.357Z,1.4000
2023-05-21T05:56:12.865Z,1.4000
2023-05-21T05:57:14.597Z,1.4000
2023-05-21T05:58:16.352Z,1.4000
2023-05-21T05:59:18.066Z,1.4000
2023-05-21T06:00:19.783Z,1.4000
2023-05-21T06:01:21.487Z,1.4000
2023-05-21T06:02:23.338Z,1.4000
2023-05-21T06:03:25.034Z,1.4000
2023-05-21T06:04:26.667Z,1.4000
2023-05-21T06:05:28.408Z,1.4000
2023-05-21T06:06:30.093Z,1.4000
2023-05-21T06:07:31.814Z,1.4000
2023-05-21T06:08:34.234Z,1.4000
2023-05-21T06:09:35.273Z,1.4000
2023-05-21T06:10:36.998Z,1.4000
2023-05-21T06:11:38.737Z,1.4000
2023-05-21T06:12:40.426Z,1.4000
2023-05-21T06:13:42.156Z,1.4000
2023-05-21T06:14:45.220Z,1.4000
2023-05-21T06:16:46.508Z,1.2000
2023-05-21T06:17:48.204Z,1.4000
2023-05-21T06:18:49.867Z,1.4000
2023-05-21T06:19:51.692Z,1.4000
2023-05-21T06:20:53.325Z,1.4000
2023-05-21T06:21:55.035Z,1.4000
2023-05-21T06:22:56.772Z,1.4000
2023-05-21T06:23:58.478Z,1.4000
2023-05-21T06:25:00.247Z,1.4000
2023-05-21T06:26:01.927Z,1.4000
2023-05-21T06:27:03.637Z,1.4000
2023-05-21T06:28:05.391Z,1.4000
2023-05-21T06:29:07.111Z,1.4000
2023-05-21T06:30:08.809Z,1.4000
2023-05-21T06:31:10.533Z,1.4000
2023-05-21T06:32:12.279Z,1.4000
2023-05-21T06:33:14.050Z,1.4000
2023-05-21T06:34:15.728Z,1.4000
2023-05-21T06:35:17.423Z,1.4000
2023-05-21T06:36:19.147Z,1.4000
2023-05-21T06:37:20.862Z,1.4000
2023-05-21T06:38:22.609Z,1.4000
2023-05-21T06:39:24.334Z,1.4000
2023-05-21T06:40:26.051Z,1.4000
2023-05-21T06:41:27.752Z,1.4000
2023-05-21T06:42:29.513Z,1.4000
2023-05-21T06:43:31.221Z,1.4769
2023-05-21T06:44:32.937Z,1.6000
2023-05-21T06:45:34.967Z,1.6000
2023-05-21T06:46:36.398Z,1.6000
2023-05-21T06:47:38.119Z,1.6000
2023-05-21T06:48:39.832Z,1.6000
2023-05-21T06:49:41.547Z,1.6000
2023-05-21T06:50:43.266Z,1.6000
2023-05-21T06:51:44.998Z,1.4769
2023-05-21T06:52:46.687Z,1.4308
2023-05-21T06:53:48.421Z,1.4000
2023-05-21T06:54:50.138Z,1.4000
2023-05-21T06:55:51.872Z,1.4000
2023-05-21T06:56:53.585Z,1.4462
2023-05-21T06:57:55.284Z,1.4000
2023-05-21T06:58:57.013Z,1.4000
2023-05-21T06:59:58.736Z,1.4000
2023-05-21T07:01:00.493Z,1.4000
2023-05-21T07:02:04.379Z,1.4000
2023-05-21T07:03:03.946Z,1.4000
2023-05-21T07:04:05.629Z,1.4000
2023-05-21T07:05:07.369Z,1.4000
2023-05-21T07:06:09.079Z,1.4000
2023-05-21T07:07:10.795Z,1.4000
2023-05-21T07:08:12.501Z,1.4000
2023-05-21T07:09:14.269Z,1.4000
2023-05-21T07:10:15.973Z,1.4000
2023-05-21T07:11:17.710Z,1.4000
2023-05-21T07:12:19.413Z,1.4000
2023-05-21T07:13:21.140Z,1.4000
2023-05-21T07:14:22.860Z,1.4000
2023-05-21T07:15:24.571Z,1.4000
2023-05-21T07:16:26.344Z,1.4000
2023-05-21T07:17:28.086Z,1.4000
2023-05-21T07:18:29.752Z,1.4000
2023-05-21T07:19:31.566Z,1.4000
2023-05-21T07:20:33.191Z,1.4000
2023-05-21T07:21:34.902Z,1.4000
2023-05-21T07:22:36.669Z,1.4000
2023-05-21T07:23:38.386Z,1.4000
2023-05-21T07:24:40.098Z,1.4000
2023-05-21T07:25:41.800Z,1.2000
2023-05-21T07:26:43.524Z,1.2000
2023-05-21T07:27:45.237Z,1.2000
2023-05-21T07:28:47.028Z,1.2462
2023-05-21T07:29:48.705Z,1.2923
2023-05-21T07:30:50.458Z,1.2308
2023-05-21T07:31:52.122Z,1.2000
2023-05-21T07:32:53.881Z,1.2000
2023-05-21T07:33:55.594Z,1.2000
2023-05-21T07:34:57.333Z,1.2000
2023-05-21T07:35:59.057Z,1.2000
2023-05-21T07:37:00.753Z,1.2000
2023-05-21T07:38:02.521Z,1.2000
2023-05-21T07:39:04.203Z,1.2000
2023-05-21T07:40:05.927Z,1.2000
2023-05-21T07:41:07.658Z,1.2000
2023-05-21T07:42:09.395Z,1.2000
2023-05-21T07:43:11.123Z,1.2000
2023-05-21T07:44:12.841Z,1.2000
2023-05-21T07:45:14.550Z,1.2000
2023-05-21T07:46:16.320Z,1.2000
2023-05-21T07:47:18.012Z,1.2000
2023-05-21T07:48:19.745Z,1.2000
2023-05-21T07:49:21.465Z,1.2000
2023-05-21T07:50:23.184Z,1.2000
2023-05-21T07:51:24.917Z,1.2000
2023-05-21T07:52:26.662Z,1.2000
2023-05-21T07:53:28.328Z,1.2000
2023-05-21T07:54:30.084Z,1.2000
2023-05-21T07:55:31.790Z,1.2000
2023-05-21T07:56:33.513Z,1.2000
2023-05-21T07:57:35.266Z,1.2000
2023-05-21T07:58:36.951Z,1.2000
2023-05-21T07:59:38.691Z,1.2000
2023-05-21T08:00:40.576Z,1.2000
2023-05-21T08:01:42.141Z,1.2000
2023-05-21T08:02:44.025Z,1.2000
2023-05-21T08:03:45.695Z,1.2000
2023-05-21T08:04:47.379Z,1.2000
2023-05-21T08:05:49.072Z,1.2000
2023-05-21T08:06:50.755Z,1.2000
2023-05-21T08:07:52.479Z,1.2000
2023-05-21T08:08:54.180Z,1.2000
2023-05-21T08:09:55.909Z,1.2000
2023-05-21T08:10:57.643Z,1.2000
2023-05-21T08:11:59.373Z,1.2000
2023-05-21T08:13:01.073Z,1.2000
2023-05-21T08:14:02.804Z,1.2000
2023-05-21T08:15:04.536Z,1.2000
2023-05-21T08:16:06.279Z,1.2000
2023-05-21T08:17:08.065Z,1.0769
2023-05-21T08:18:09.853Z,1.0000
2023-05-21T08:19:11.503Z,1.0000
2023-05-21T08:20:13.149Z,1.0000
2023-05-21T08:21:14.879Z,1.0000
2023-05-21T08:22:16.595Z,1.0000
2023-05-21T08:23:18.310Z,1.0000
2023-05-21T08:24:20.044Z,1.0000
2023-05-21T08:25:21.767Z,1.0000
2023-05-21T08:26:23.470Z,1.0000
2023-05-21T08:27:25.203Z,1.0000
2023-05-21T08:28:26.935Z,1.0000
2023-05-21T08:29:28.665Z,1.1692
2023-05-21T08:30:30.377Z,1.2000
2023-05-21T08:31:32.098Z,1.2000
2023-05-21T08:32:33.874Z,1.2000
2023-05-21T08:33:35.536Z,1.2000
2023-05-21T08:34:37.259Z,1.2000
2023-05-21T08:35:39.134Z,1.2000
2023-05-21T08:36:40.685Z,1.1846
2023-05-21T08:37:42.406Z,1.0154
2023-05-21T08:38:44.175Z,1.0000
2023-05-21T08:39:45.867Z,1.0000
2023-05-21T08:40:47.596Z,1.0000
2023-05-21T08:41:49.330Z,1.0000
2023-05-21T08:42:51.029Z,1.0000
2023-05-21T08:43:54.329Z,1.0000
2023-05-21T08:48:44.782Z,0.8667
2023-05-21T08:49:46.410Z,1.0000
2023-05-21T08:50:48.128Z,1.0000
2023-05-21T08:51:49.947Z,1.0000
2023-05-21T08:52:51.594Z,1.0000
2023-05-21T08:53:53.292Z,1.0000
2023-05-21T08:54:55.021Z,1.0000
2023-05-21T08:55:56.835Z,1.0000
2023-05-21T08:56:58.495Z,1.0000
2023-05-21T08:58:00.203Z,1.0000
2023-05-21T08:59:01.932Z,1.0000
2023-05-21T09:00:03.630Z,1.0000
2023-05-21T09:01:05.423Z,1.0000
2023-05-21T09:02:07.175Z,1.0000
2023-05-21T09:03:08.911Z,1.0000
2023-05-21T09:04:20.292Z,1.0000
2023-05-21T09:05:12.257Z,1.0000
2023-05-21T09:06:13.977Z,1.0000
2023-05-21T09:07:15.719Z,1.0000
2023-05-21T09:08:17.521Z,1.0000
2023-05-21T09:09:19.148Z,1.0000
2023-05-21T09:10:20.958Z,1.0000
2023-05-21T09:11:22.572Z,1.0000
2023-05-21T09:12:24.294Z,1.0000
2023-05-21T09:13:26.100Z,1.0000
2023-05-21T09:14:27.754Z,1.0000
2023-05-21T09:15:29.516Z,1.0000
2023-05-21T09:16:31.215Z,1.0000
2023-05-21T09:17:32.961Z,1.0000
2023-05-21T09:18:34.618Z,0.9538
2023-05-21T09:19:36.523Z,0.8000
2023-05-21T09:20:38.065Z,0.8000
2023-05-21T09:21:39.793Z,0.8000
2023-05-21T09:22:41.547Z,0.8000
2023-05-21T09:23:43.254Z,0.8000
2023-05-21T09:24:44.984Z,0.8000
2023-05-21T09:25:46.780Z,0.8000
2023-05-21T09:26:48.396Z,0.8000
2023-05-21T09:27:50.120Z,0.8000
2023-05-21T09:28:51.847Z,0.8000
2023-05-21T09:29:53.578Z,0.8000
2023-05-21T09:30:55.311Z,0.8000
2023-05-21T09:31:57.148Z,0.8000
2023-05-21T09:32:58.782Z,0.8000
2023-05-21T09:34:00.439Z,0.8000
2023-05-21T09:35:02.175Z,0.8000
2023-05-21T09:36:03.907Z,0.8000
2023-05-21T09:37:08.537Z,0.8000
2023-05-21T09:39:15.937Z,0.8000
2023-05-21T09:40:17.582Z,0.8000
2023-05-21T09:41:21.959Z,0.8000
2023-05-21T09:45:15.715Z,0.8000
2023-05-21T09:46:17.380Z,0.8000
2023-05-21T09:47:19.068Z,0.8000
2023-05-21T09:48:20.888Z,0.8000
2023-05-21T09:49:22.522Z,0.8000
2023-05-21T09:50:24.234Z,0.8000
2023-05-21T09:51:25.963Z,0.8000
2023-05-21T09:52:27.774Z,0.8000
2023-05-21T09:53:29.455Z,0.8000
2023-05-21T09:54:31.152Z,0.8000
2023-05-21T09:55:32.891Z,0.8000
2023-05-21T09:56:34.629Z,0.8000
2023-05-21T09:57:36.314Z,0.8000
2023-05-21T09:58:38.167Z,0.8000
2023-05-21T09:59:39.800Z,0.8000
2023-05-21T10:00:41.510Z,0.8000
2023-05-21T10:01:43.273Z,0.8000
2023-05-21T10:02:44.982Z,0.8000
2023-05-21T10:03:48.122Z,0.8000
2023-05-21T10:09:35.177Z,0.7833
2023-05-21T10:10:37.003Z,0.8000
2023-05-21T10:11:38.540Z,0.8000
2023-05-21T10:12:40.352Z,0.8000
2023-05-21T10:13:41.995Z,0.8000
2023-05-21T10:14:43.737Z,0.8000
2023-05-21T10:15:45.445Z,0.8000
2023-05-21T10:16:47.245Z,0.8000
2023-05-21T10:17:49.057Z,0.8000
2023-05-21T10:18:50.618Z,0.8000
2023-05-21T10:19:52.350Z,0.8000
2023-05-21T10:20:54.056Z,0.8000
2023-05-21T10:21:55.758Z,0.8000
2023-05-21T10:22:57.476Z,0.8000
2023-05-21T10:23:59.312Z,0.8000
2023-05-21T10:25:00.965Z,0.8000
2023-05-21T10:26:02.668Z,0.8000
2023-05-21T10:27:04.366Z,0.8000
2023-05-21T10:28:06.092Z,0.8000
2023-05-21T10:29:07.822Z,0.8000
2023-05-21T10:30:09.624Z,0.8000
2023-05-21T10:31:11.264Z,0.8000
2023-05-21T10:32:13.036Z,0.8000
2023-05-21T10:33:14.731Z,0.8000
2023-05-21T10:34:16.459Z,0.8000
2023-05-21T10:35:18.154Z,0.8000
2023-05-21T10:36:19.944Z,0.8000
2023-05-21T10:37:21.606Z,0.8000
2023-05-21T10:38:23.332Z,0.8000
2023-05-21T10:39:25.052Z,0.8000
2023-05-21T10:40:26.769Z,0.8000
2023-05-21T10:41:28.489Z,0.8000
2023-05-21T10:42:30.271Z,0.8000
2023-05-21T10:43:31.946Z,0.8000
2023-05-21T10:44:33.669Z,0.8000
2023-05-21T10:45:35.389Z,0.8000
2023-05-21T10:46:37.117Z,0.8000
2023-05-21T10:47:38.859Z,0.8000
2023-05-21T10:48:40.624Z,0.8000
2023-05-21T10:49:42.253Z,0.8000
2023-05-21T10:50:44.011Z,0.8000
2023-05-21T10:51:45.721Z,0.8000
2023-05-21T10:52:47.458Z,0.8000
2023-05-21T10:53:49.206Z,0.8000
2023-05-21T10:54:50.867Z,0.8000
2023-05-21T10:55:52.626Z,0.8000
2023-05-21T10:56:54.337Z,0.8000
2023-05-21T10:57:56.067Z,0.8000
2023-05-21T10:58:57.775Z,0.8000
2023-05-21T10:59:59.591Z,0.8000
2023-05-21T11:01:01.244Z,0.8000
2023-05-21T11:02:02.982Z,0.8000
2023-05-21T11:03:04.799Z,0.8000
2023-05-21T11:04:06.389Z,0.8000
2023-05-21T11:05:08.121Z,0.8000
2023-05-21T11:06:09.913Z,0.8000
2023-05-21T11:07:11.578Z,0.8000
2023-05-21T11:08:13.301Z,0.8000
2023-05-21T11:09:15.031Z,0.8000
2023-05-21T11:10:16.744Z,0.8000
2023-05-21T11:11:18.481Z,0.8000
2023-05-21T11:12:20.291Z,0.8000
2023-05-21T11:13:21.973Z,0.8000
2023-05-21T11:14:23.627Z,0.8000
2023-05-21T11:15:25.378Z,0.8000
2023-05-21T11:16:27.117Z,0.8000
2023-05-21T11:17:28.853Z,0.8000
2023-05-21T11:18:30.635Z,0.8000
2023-05-21T11:19:33.898Z,0.8000
2023-05-21T11:24:35.317Z,0.7500
2023-05-21T11:25:36.895Z,0.8000
2023-05-21T11:26:38.631Z,0.8000
2023-05-21T11:27:40.451Z,0.8000
2023-05-21T11:28:42.082Z,0.8000
2023-05-21T11:29:43.836Z,0.8000
2023-05-21T11:30:45.749Z,0.8000
2023-05-21T11:31:47.359Z,0.8000
2023-05-21T11:32:49.086Z,0.8000
2023-05-21T11:33:50.750Z,0.8000
2023-05-21T11:34:52.458Z,0.8000
2023-05-21T11:35:54.185Z,0.8000
2023-05-21T11:36:55.913Z,0.8000
2023-05-21T11:37:57.614Z,0.8000
2023-05-21T11:38:59.412Z,0.8000
2023-05-21T11:40:01.160Z,0.8000
2023-05-21T11:41:02.827Z,0.8000
2023-05-21T11:42:04.885Z,0.8000
2023-05-21T11:43:06.245Z,0.8000
2023-05-21T11:44:07.979Z,0.8000
2023-05-21T11:45:09.798Z,0.8000
2023-05-21T11:46:11.492Z,0.8000
2023-05-21T11:47:13.176Z,0.8000
2023-05-21T11:48:14.910Z,0.8000
2023-05-21T11:49:16.611Z,0.8000
2023-05-21T11:50:18.451Z,0.8000
2023-05-21T11:51:20.091Z,0.8000
2023-05-21T11:52:21.807Z,0.8000
2023-05-21T11:53:23.499Z,0.8000
2023-05-21T11:54:25.224Z,0.8000
2023-05-21T11:55:26.971Z,0.8000
2023-05-21T11:56:28.795Z,0.8000
2023-05-21T11:57:30.390Z,0.8000
2023-05-21T11:58:32.482Z,0.8000
2023-05-21T11:59:33.840Z,0.8000
2023-05-21T12:00:35.788Z,0.8000
2023-05-21T12:01:37.288Z,0.8000
2023-05-21T12:02:39.141Z,0.8000
2023-05-21T12:03:40.832Z,0.8000
2023-05-21T12:04:42.484Z,0.8000
2023-05-21T12:05:44.187Z,0.8000
2023-05-21T12:06:45.917Z,0.8000
2023-05-21T12:07:47.640Z,0.7846
2023-05-21T12:08:49.439Z,0.8000
2023-05-21T12:09:51.112Z,0.8000
2023-05-21T12:10:52.802Z,0.8000
2023-05-21T12:11:54.530Z,0.8000
2023-05-21T12:12:57.507Z,0.8000
2023-05-21T12:14:58.875Z,0.6000
2023-05-21T12:16:00.569Z,0.7385
2023-05-21T12:17:02.254Z,0.8000
2023-05-21T12:18:04.117Z,0.8000
2023-05-21T12:19:05.756Z,0.8000
2023-05-21T12:20:07.483Z,0.8000
2023-05-21T12:21:10.573Z,0.8000
2023-05-21T12:22:10.976Z,0.8000
2023-05-21T12:23:12.617Z,0.8000
2023-05-21T12:24:14.337Z,0.8000
2023-05-21T12:25:16.082Z,0.6154
2023-05-21T12:26:17.807Z,0.6000
2023-05-21T12:27:19.515Z,0.6000
2023-05-21T12:28:21.350Z,0.6000
2023-05-21T12:29:22.962Z,0.6000
2023-05-21T12:30:24.707Z,0.6000
2023-05-21T12:31:26.444Z,0.6000
2023-05-21T12:32:28.186Z,0.6000
2023-05-21T12:33:29.954Z,0.6000
2023-05-21T12:34:31.600Z,0.6000
2023-05-21T12:35:33.381Z,0.6000
2023-05-21T12:36:35.062Z,0.6000
2023-05-21T12:37:36.793Z,0.6000
2023-05-21T12:38:38.490Z,0.6000
2023-05-21T12:39:40.348Z,0.6000
2023-05-21T12:40:42.002Z,0.6000
2023-05-21T12:41:43.713Z,0.6000
2023-05-21T12:42:45.417Z,0.6000
2023-05-21T12:43:47.169Z,0.6000
2023-05-21T12:44:48.870Z,0.6000
2023-05-21T12:45:50.696Z,0.6000
2023-05-21T12:46:52.321Z,0.6000
2023-05-21T12:47:54.074Z,0.6000
2023-05-21T12:48:55.808Z,0.6000
2023-05-21T12:49:57.472Z,0.6000
2023-05-21T12:50:59.199Z,0.6000
2023-05-21T12:52:01.013Z,0.6000
2023-05-21T12:53:02.649Z,0.6000
2023-05-21T12:54:04.403Z,0.6000
2023-05-21T12:55:07.125Z,0.6000
2023-05-21T12:56:07.841Z,0.6000
2023-05-21T12:57:09.557Z,0.6000
2023-05-21T12:58:11.371Z,0.6000
2023-05-21T12:59:13.027Z,0.6000
2023-05-21T13:00:14.735Z,0.6000
2023-05-21T13:01:16.524Z,0.6000
2023-05-21T13:02:18.210Z,0.6000
2023-05-21T13:03:20.121Z,0.6000
2023-05-21T13:04:21.767Z,0.6000
2023-05-21T13:05:23.384Z,0.7231
2023-05-21T13:06:25.086Z,0.8000
2023-05-21T13:07:26.812Z,0.8000
2023-05-21T13:08:28.558Z,0.6615
2023-05-21T13:09:30.353Z,0.6000
2023-05-21T13:10:31.987Z,0.6923
2023-05-21T13:11:33.700Z,0.8000